Time;durP1;ratioP1;P1;durP2;ratioP2;P2;SDS_P1;SDS_P2;PMS_P1;PMS_P2;Temp;Humidity;BMP_temperature;BMP_pressure;BME280_temperature;BME280_humidity;BME280_pressure;Samples;Min_cycle;Max_cycle;Signal;HPM_P1;HPM_P2
2022/08/20 00:02:12;;;;;;;9.70;8.90;;;21.20;99.30;;;;;;5035665;28;20455;-75
2022/08/20 00:04:41;;;;;;;10.30;9.37;;;21.20;99.50;;;;;;5035315;28;20431;-76
2022/08/20 00:07:10;;;;;;;12.80;11.70;;;21.20;99.90;;;;;;5035264;28;20463;-76
2022/08/20 00:09:40;;;;;;;14.00;12.90;;;21.10;99.90;;;;;;5034908;28;20431;-75
2022/08/20 00:12:10;;;;;;;14.40;13.27;;;21.10;99.90;;;;;;5033656;28;20817;-76
2022/08/20 00:14:38;;;;;;;16.20;14.80;;;21.10;99.90;;;;;;5035200;28;20932;-75
2022/08/20 00:17:08;;;;;;;17.60;16.03;;;21.00;99.90;;;;;;5034961;28;20459;-76
2022/08/20 00:19:47;;;;;;;16.03;14.63;;;21.00;99.90;;;;;;5035602;28;20427;-76
2022/08/20 00:22:21;;;;;;;18.10;16.40;;;20.90;99.90;;;;;;5034766;28;20451;-76
2022/08/20 00:24:49;;;;;;;16.33;14.83;;;20.90;99.90;;;;;;5034808;28;20450;-76
2022/08/20 00:27:18;;;;;;;16.97;15.00;;;20.80;99.90;;;;;;5035166;28;20461;-76
2022/08/20 00:29:46;;;;;;;17.80;16.30;;;20.80;99.90;;;;;;5033713;28;20455;-76
2022/08/20 00:32:14;;;;;;;18.33;16.77;;;20.70;99.90;;;;;;5033086;28;20954;-76
2022/08/20 00:34:42;;;;;;;19.77;18.07;;;20.70;99.90;;;;;;5034500;28;20435;-76
2022/08/20 00:37:10;;;;;;;20.23;18.43;;;20.70;99.90;;;;;;5034390;28;20494;-77
2022/08/20 00:39:40;;;;;;;17.90;16.40;;;20.70;99.90;;;;;;5034334;28;20431;-76
2022/08/20 00:42:09;;;;;;;17.63;16.23;;;20.70;99.90;;;;;;5034844;28;20467;-76
2022/08/20 00:44:37;;;;;;;15.93;14.73;;;20.60;99.90;;;;;;5034502;28;20530;-76
2022/08/20 00:47:08;;;;;;;16.73;15.23;;;20.60;99.90;;;;;;5033035;28;20872;-75
2022/08/20 00:49:36;;;;;;;16.43;15.03;;;20.60;99.90;;;;;;5033036;28;20561;-75
2022/08/20 00:52:09;;;;;;;15.00;13.90;;;20.50;99.90;;;;;;5034632;28;20431;-75
2022/08/20 00:54:43;;;;;;;15.27;13.97;;;20.50;99.90;;;;;;5034689;28;20419;-75
2022/08/20 00:57:17;;;;;;;15.20;13.90;;;20.50;99.90;;;;;;5034831;28;20525;-77
2022/08/20 00:59:45;;;;;;;14.37;13.07;;;20.50;99.90;;;;;;5034593;28;20452;-77
2022/08/20 01:02:16;;;;;;;13.80;12.50;;;20.40;99.90;;;;;;5034496;28;20562;-77
2022/08/20 01:04:46;;;;;;;14.67;13.30;;;20.40;99.90;;;;;;5032796;28;20903;-77
2022/08/20 01:07:15;;;;;;;14.03;12.83;;;20.40;99.90;;;;;;5034284;28;20469;-77
2022/08/20 01:09:44;;;;;;;13.83;12.53;;;20.40;99.90;;;;;;5032884;28;20443;-75
2022/08/20 01:12:28;;;;;;;12.00;11.00;;;20.40;99.90;;;;;;5033994;28;20419;-75
2022/08/20 01:14:58;;;;;;;11.23;10.30;;;20.40;99.90;;;;;;5034624;28;20446;-77
2022/08/20 01:17:31;;;;;;;11.33;10.33;;;20.30;99.90;;;;;;5034751;28;20463;-77
2022/08/20 01:20:07;;;;;;;9.87;8.97;;;20.40;99.90;;;;;;5034151;28;20445;-77
2022/08/20 01:25:38;;;;;;;10.40;9.50;;;20.30;99.90;;;;;;5033378;28;20465;-76
2022/08/20 01:28:07;;;;;;;10.67;9.77;;;20.30;99.90;;;;;;5032458;28;20471;-76
2022/08/20 01:30:36;;;;;;;9.43;8.73;;;20.30;99.90;;;;;;5032555;28;21023;-76
2022/08/20 01:33:05;;;;;;;12.30;11.10;;;20.40;99.90;;;;;;5034020;28;20459;-76
2022/08/20 01:35:36;;;;;;;11.00;10.10;;;20.30;99.90;;;;;;5032690;28;20451;-76
2022/08/20 01:38:05;;;;;;;11.40;10.50;;;20.40;99.90;;;;;;5033060;28;21049;-76
2022/08/20 01:40:51;;;;;;;12.07;11.03;;;20.40;99.90;;;;;;5040608;28;20450;-76
2022/08/20 01:43:20;;;;;;;11.87;10.87;;;20.40;99.90;;;;;;5040501;28;20502;-77
2022/08/20 01:45:51;;;;;;;12.10;11.10;;;20.40;99.90;;;;;;5040335;28;20435;-77
2022/08/20 01:48:20;;;;;;;12.50;11.23;;;20.30;99.90;;;;;;5039020;28;20451;-79
2022/08/20 01:50:58;;;;;;;11.77;10.77;;;20.30;99.90;;;;;;5034141;28;20507;-76
2022/08/20 01:53:32;;;;;;;11.63;10.63;;;20.40;99.90;;;;;;5032704;28;20947;-79
2022/08/20 01:56:03;;;;;;;10.43;9.63;;;20.40;99.90;;;;;;5032343;28;20459;-76
2022/08/20 01:58:33;;;;;;;11.50;10.60;;;20.40;99.90;;;;;;5032512;28;20875;-77
2022/08/20 02:01:01;;;;;;;12.10;11.17;;;20.40;99.90;;;;;;5032458;28;20451;-78
2022/08/20 02:03:30;;;;;;;11.37;10.47;;;20.40;99.90;;;;;;5033747;28;20451;-77
2022/08/20 02:06:05;;;;;;;11.83;10.93;;;20.30;99.90;;;;;;5032783;28;20545;-77
2022/08/20 02:08:33;;;;;;;11.73;10.73;;;20.30;99.90;;;;;;5034186;28;20807;-79
2022/08/20 02:11:03;;;;;;;11.47;10.47;;;20.30;99.90;;;;;;5033221;28;20857;-77
2022/08/20 02:13:31;;;;;;;11.93;10.93;;;20.30;99.90;;;;;;5034678;28;20478;-78
2022/08/20 02:15:59;;;;;;;11.20;10.30;;;20.30;99.90;;;;;;5033270;28;20447;-78
2022/08/20 02:18:27;;;;;;;11.63;10.73;;;20.30;99.90;;;;;;5032095;28;20962;-77
2022/08/20 02:20:56;;;;;;;11.83;10.87;;;20.30;99.90;;;;;;5033449;28;20488;-77
2022/08/20 02:23:24;;;;;;;10.70;9.90;;;20.30;99.90;;;;;;5033548;28;20471;-78
2022/08/20 02:25:52;;;;;;;11.40;10.50;;;20.30;99.90;;;;;;5033795;28;20442;-77
2022/08/20 02:28:22;;;;;;;11.07;10.23;;;20.30;99.90;;;;;;5033652;28;20850;-77
2022/08/20 02:30:54;;;;;;;11.23;9.67;;;20.30;99.90;;;;;;5033785;28;20492;-79
2022/08/20 02:33:23;;;;;;;10.60;9.80;;;20.30;99.90;;;;;;5032334;28;20435;-78
2022/08/20 02:35:55;;;;;;;10.00;9.03;;;20.30;99.90;;;;;;5034018;28;20446;-78
2022/08/20 02:38:24;;;;;;;10.37;9.47;;;20.30;99.90;;;;;;5035258;28;20760;-77
2022/08/20 02:40:52;;;;;;;9.67;8.87;;;20.30;99.90;;;;;;5034792;28;20464;-77
2022/08/20 02:43:22;;;;;;;11.80;10.80;;;20.30;99.90;;;;;;5031888;28;20471;-77
2022/08/20 02:45:50;;;;;;;10.60;9.70;;;20.30;99.90;;;;;;5031720;28;20446;-78
2022/08/20 02:48:21;;;;;;;10.20;9.40;;;20.30;99.90;;;;;;5033395;28;20439;-76
2022/08/20 02:50:55;;;;;;;10.80;9.90;;;20.20;99.90;;;;;;5031746;28;20454;-78
2022/08/20 02:53:24;;;;;;;10.60;9.80;;;20.20;99.90;;;;;;5031988;28;20496;-79
2022/08/20 02:55:52;;;;;;;11.87;10.97;;;20.20;99.90;;;;;;5034944;28;20441;-76
2022/08/20 02:58:23;;;;;;;11.27;10.37;;;20.20;99.90;;;;;;5036658;28;20455;-76
2022/08/20 03:00:51;;;;;;;10.87;9.97;;;20.20;99.90;;;;;;5037525;28;20447;-77
2022/08/20 03:03:21;;;;;;;10.33;9.53;;;20.20;99.90;;;;;;5036045;28;20489;-77
2022/08/20 03:05:52;;;;;;;10.77;9.80;;;20.20;99.90;;;;;;5037043;28;20450;-76
2022/08/20 03:08:22;;;;;;;10.90;10.00;;;20.20;99.90;;;;;;5038206;28;20447;-78
2022/08/20 03:10:51;;;;;;;11.10;10.10;;;20.20;99.90;;;;;;5037300;28;20449;-78
2022/08/20 03:13:20;;;;;;;10.00;9.30;;;20.20;99.90;;;;;;5037688;28;20437;-79
2022/08/20 03:15:53;;;;;;;10.70;9.80;;;20.20;99.90;;;;;;5036777;28;20445;-77
2022/08/20 03:18:30;;;;;;;11.13;10.30;;;20.20;99.90;;;;;;5035951;28;20451;-79
2022/08/20 03:20:59;;;;;;;10.87;9.97;;;20.20;99.90;;;;;;5036831;28;20506;-77
2022/08/20 03:23:27;;;;;;;10.50;9.70;;;20.10;99.90;;;;;;5034919;28;20479;-77
2022/08/20 03:25:57;;;;;;;10.27;9.57;;;20.10;99.90;;;;;;5035197;28;20432;-76
2022/08/20 03:28:25;;;;;;;9.47;8.77;;;20.10;99.90;;;;;;5034783;28;20533;-77
2022/08/20 03:30:56;;;;;;;8.97;8.20;;;20.10;99.90;;;;;;5036071;28;20449;-77
2022/08/20 03:33:24;;;;;;;8.03;7.43;;;20.10;99.90;;;;;;5035580;28;20497;-77
2022/08/20 03:35:53;;;;;;;8.43;7.83;;;20.20;99.90;;;;;;5036847;28;20439;-76
2022/08/20 03:38:23;;;;;;;9.33;8.53;;;20.20;99.90;;;;;;5036281;28;21035;-78
2022/08/20 03:41:01;;;;;;;9.47;8.77;;;20.10;99.90;;;;;;5036319;28;20435;-79
2022/08/20 03:43:30;;;;;;;9.50;8.73;;;20.10;99.90;;;;;;5034931;28;20556;-78
2022/08/20 03:45:59;;;;;;;10.17;9.37;;;20.10;99.90;;;;;;5036709;28;20522;-78
2022/08/20 03:48:28;;;;;;;10.63;9.73;;;20.10;99.90;;;;;;5037003;28;20465;-77
2022/08/20 03:50:59;;;;;;;9.67;8.87;;;20.10;99.90;;;;;;5036039;28;20447;-77
2022/08/20 03:53:30;;;;;;;11.60;10.70;;;20.10;99.90;;;;;;5036300;28;20469;-78
2022/08/20 03:56:03;;;;;;;12.47;11.47;;;20.10;99.90;;;;;;5036749;28;20506;-78
2022/08/20 03:58:33;;;;;;;12.93;11.77;;;20.10;99.90;;;;;;5036810;28;20439;-76
2022/08/20 04:01:06;;;;;;;13.50;12.40;;;20.10;99.90;;;;;;5036202;28;20415;-77
2022/08/20 04:03:57;;;;;;;13.90;12.80;;;20.00;99.90;;;;;;5036084;28;20466;-77
2022/08/20 04:06:27;;;;;;;15.17;13.97;;;20.00;99.90;;;;;;5034772;28;20475;-79
2022/08/20 04:08:56;;;;;;;15.40;14.20;;;20.00;99.90;;;;;;5035946;28;20423;-77
2022/08/20 04:11:24;;;;;;;15.17;13.97;;;20.00;99.90;;;;;;5035537;28;20889;-77
2022/08/20 04:13:52;;;;;;;15.63;14.30;;;20.00;99.90;;;;;;5035401;28;20439;-77
2022/08/20 04:16:22;;;;;;;15.50;14.10;;;20.00;99.90;;;;;;5034177;28;20482;-77
2022/08/20 04:18:50;;;;;;;15.60;14.20;;;20.00;99.90;;;;;;5035405;28;20439;-77
2022/08/20 04:21:29;;;;;;;16.57;15.27;;;20.00;99.90;;;;;;5034414;28;20430;-77
2022/08/20 04:24:01;;;;;;;18.60;16.90;;;20.00;99.90;;;;;;5035429;28;20478;-77
2022/08/20 04:26:29;;;;;;;18.23;16.63;;;19.90;99.90;;;;;;5035114;28;20447;-77
2022/08/20 04:28:58;;;;;;;18.50;16.90;;;20.00;99.90;;;;;;5035262;28;20538;-78
2022/08/20 04:31:31;;;;;;;20.00;18.20;;;19.90;99.90;;;;;;5035631;28;20799;-78
2022/08/20 04:34:01;;;;;;;19.47;17.57;;;19.90;99.90;;;;;;5035680;28;20477;-77
2022/08/20 04:36:29;;;;;;;19.13;17.37;;;19.90;99.90;;;;;;5035109;28;20521;-78
2022/08/20 04:38:57;;;;;;;19.13;17.33;;;19.90;99.90;;;;;;5035763;28;20485;-77
2022/08/20 04:41:25;;;;;;;19.23;17.37;;;19.90;99.90;;;;;;5033671;28;20949;-79
2022/08/20 04:43:55;;;;;;;20.70;18.80;;;20.00;99.90;;;;;;5035202;28;20549;-76
2022/08/20 04:46:27;;;;;;;18.57;16.87;;;19.90;99.90;;;;;;5033698;28;20922;-78
2022/08/20 04:48:56;;;;;;;18.60;16.70;;;19.90;99.90;;;;;;5034138;28;20435;-77
2022/08/20 04:51:25;;;;;;;17.37;15.83;;;20.00;99.90;;;;;;5033756;28;20497;-77
2022/08/20 04:53:55;;;;;;;20.40;18.53;;;20.00;99.90;;;;;;5033884;28;20907;-77
2022/08/20 04:56:25;;;;;;;22.90;20.10;;;20.00;99.90;;;;;;5034023;28;20467;-79
2022/08/20 04:58:54;;;;;;;20.40;18.70;;;20.00;99.90;;;;;;5034934;28;20502;-77
2022/08/20 05:01:24;;;;;;;20.93;19.03;;;20.00;99.90;;;;;;5036084;28;20885;-77
2022/08/20 05:03:55;;;;;;;22.37;20.07;;;20.00;99.90;;;;;;5034986;28;20887;-77
2022/08/20 05:06:27;;;;;;;22.00;20.00;;;20.00;99.90;;;;;;5034799;28;20866;-77
2022/08/20 05:08:57;;;;;;;22.43;20.40;;;20.00;99.90;;;;;;5035021;28;20423;-78
2022/08/20 05:11:25;;;;;;;22.87;20.67;;;20.00;99.90;;;;;;5033553;28;20451;-77
2022/08/20 05:14:05;;;;;;;22.30;20.20;;;20.00;99.90;;;;;;5036572;28;20506;-80
2022/08/20 05:16:37;;;;;;;24.17;21.70;;;20.00;99.90;;;;;;5035735;28;20504;-79
2022/08/20 05:19:09;;;;;;;24.27;22.03;;;20.00;99.90;;;;;;5034998;28;20437;-80
2022/08/20 05:21:38;;;;;;;23.30;21.10;;;20.00;99.90;;;;;;5035541;28;20485;-78
2022/08/20 05:24:06;;;;;;;23.43;21.30;;;20.00;99.90;;;;;;5035227;28;20471;-78
2022/08/20 05:26:35;;;;;;;24.53;22.33;;;20.00;99.90;;;;;;5033921;28;20470;-77
2022/08/20 05:29:05;;;;;;;24.53;21.93;;;20.00;99.90;;;;;;5035709;28;20447;-78
2022/08/20 05:31:34;;;;;;;24.07;21.80;;;20.10;99.90;;;;;;5035840;28;20423;-77
2022/08/20 05:34:08;;;;;;;24.87;22.40;;;20.10;99.90;;;;;;5036159;28;20463;-77
2022/08/20 05:36:39;;;;;;;26.73;23.83;;;20.10;99.90;;;;;;5034488;28;20569;-78
2022/08/20 05:39:08;;;;;;;25.57;23.23;;;20.10;99.90;;;;;;5037569;28;20431;-78
2022/08/20 05:41:37;;;;;;;25.37;22.97;;;20.10;99.90;;;;;;5034471;28;20457;-78
2022/08/20 05:44:09;;;;;;;26.30;23.60;;;20.20;99.90;;;;;;5034673;28;20525;-78
2022/08/20 05:46:39;;;;;;;26.50;23.97;;;20.20;99.90;;;;;;5035472;28;20465;-77
2022/08/20 05:49:08;;;;;;;27.63;24.80;;;20.20;99.90;;;;;;5036676;28;20423;-79
2022/08/20 05:51:37;;;;;;;26.73;24.07;;;20.20;99.90;;;;;;5035508;28;20478;-77
2022/08/20 05:54:06;;;;;;;28.23;25.20;;;20.30;99.90;;;;;;5034911;28;20455;-78
2022/08/20 05:56:35;;;;;;;26.90;24.30;;;20.30;99.90;;;;;;5037080;28;20450;-77
2022/08/20 05:59:06;;;;;;;26.47;23.67;;;20.30;99.90;;;;;;5035653;28;20447;-77
2022/08/20 06:01:36;;;;;;;27.17;24.37;;;20.30;99.90;;;;;;5034548;28;20453;-79
2022/08/20 06:06:55;;;;;;;26.40;23.80;;;20.40;99.90;;;;;;5035382;28;20470;-78
2022/08/20 06:09:25;;;;;;;25.90;23.37;;;20.40;99.90;;;;;;5037412;28;20462;-78
2022/08/20 06:12:00;;;;;;;26.80;24.10;;;20.50;99.90;;;;;;5035992;28;20434;-78
2022/08/20 06:14:28;;;;;;;25.90;23.20;;;20.50;99.90;;;;;;5039407;28;20481;-77
2022/08/20 06:17:05;;;;;;;24.90;22.30;;;20.50;99.90;;;;;;5037157;28;20490;-78
2022/08/20 06:19:34;;;;;;;21.93;19.83;;;20.50;99.90;;;;;;5037414;28;20415;-79
2022/08/20 06:22:06;;;;;;;25.27;22.30;;;20.50;99.90;;;;;;5036485;28;20936;-78
2022/08/20 06:24:53;;;;;;;22.53;20.43;;;20.50;99.90;;;;;;5036237;28;20557;-78
2022/08/20 06:27:22;;;;;;;21.90;19.77;;;20.50;99.90;;;;;;5035232;28;20988;-80
2022/08/20 06:29:51;;;;;;;21.43;19.47;;;20.50;99.90;;;;;;5035948;28;20489;-79
2022/08/20 06:32:20;;;;;;;20.20;18.20;;;20.50;99.90;;;;;;5039609;28;20450;-78
2022/08/20 06:35:00;;;;;;;18.97;17.07;;;20.50;99.90;;;;;;5038376;28;20477;-79
2022/08/20 06:37:30;;;;;;;22.20;20.07;;;20.50;99.90;;;;;;5037691;28;20473;-79
2022/08/20 06:40:03;;;;;;;18.60;16.80;;;20.50;99.90;;;;;;5038016;28;20828;-77
2022/08/20 06:42:32;;;;;;;18.77;16.90;;;20.50;99.90;;;;;;5038538;28;20439;-78
2022/08/20 06:45:03;;;;;;;18.63;16.90;;;20.50;99.90;;;;;;5040907;28;20912;-79
2022/08/20 06:47:32;;;;;;;16.97;15.27;;;20.50;99.90;;;;;;5041031;28;20454;-78
2022/08/20 06:50:00;;;;;;;16.23;14.60;;;20.60;99.90;;;;;;5037808;28;20550;-79
2022/08/20 06:52:30;;;;;;;16.63;14.20;;;20.60;99.90;;;;;;5038174;28;20446;-79
2022/08/20 06:55:18;;;;;;;14.20;12.90;;;20.60;99.90;;;;;;5039954;28;20447;-80
2022/08/20 06:57:47;;;;;;;14.77;13.27;;;20.60;99.90;;;;;;5038583;28;21098;-79
2022/08/20 07:00:18;;;;;;;16.63;14.83;;;20.60;99.90;;;;;;5037303;28;20872;-78
2022/08/20 07:02:46;;;;;;;14.70;13.30;;;20.70;99.90;;;;;;5036700;28;20451;-79
2022/08/20 07:05:15;;;;;;;16.90;13.70;;;20.70;99.90;;;;;;5038029;28;20493;-77
2022/08/20 07:07:48;;;;;;;15.63;14.13;;;20.70;99.90;;;;;;5036345;28;20467;-76
2022/08/20 07:10:17;;;;;;;15.10;13.60;;;20.70;99.90;;;;;;5039094;28;20482;-78
2022/08/20 07:12:49;;;;;;;20.60;14.50;;;20.70;99.90;;;;;;5040195;28;20445;-78
2022/08/20 07:15:20;;;;;;;14.87;13.57;;;20.70;99.90;;;;;;5039302;28;20478;-79
2022/08/20 07:17:52;;;;;;;15.80;12.90;;;20.80;99.90;;;;;;5040254;28;20469;-78
2022/08/20 07:20:28;;;;;;;15.63;13.93;;;20.80;99.90;;;;;;5040905;28;20451;-79
2022/08/20 07:22:57;;;;;;;14.47;12.97;;;20.80;99.90;;;;;;5038702;28;20454;-78
2022/08/20 07:25:26;;;;;;;15.17;12.70;;;20.80;99.90;;;;;;5038761;28;20578;-79
2022/08/20 07:28:00;;;;;;;18.90;13.53;;;20.70;99.90;;;;;;5039419;28;20995;-78
2022/08/20 07:33:25;;;;;;;16.10;14.33;;;20.80;99.90;;;;;;5038282;28;20474;-79
2022/08/20 07:35:55;;;;;;;15.83;12.60;;;20.80;99.90;;;;;;5036913;28;20451;-78
2022/08/20 07:38:28;;;;;;;13.47;12.17;;;20.80;99.90;;;;;;5038437;28;20469;-78
2022/08/20 07:40:59;;;;;;;18.17;14.20;;;20.80;99.90;;;;;;5036314;28;20528;-78
2022/08/20 07:43:27;;;;;;;13.07;11.87;;;20.80;99.90;;;;;;5037117;28;20435;-79
2022/08/20 07:45:59;;;;;;;12.80;10.90;;;20.80;99.90;;;;;;5038746;28;20490;-77
2022/08/20 07:48:29;;;;;;;12.73;10.03;;;20.80;99.90;;;;;;5037475;28;20451;-80
2022/08/20 07:51:02;;;;;;;13.53;10.67;;;20.80;99.90;;;;;;5037019;28;20451;-76
2022/08/20 07:53:33;;;;;;;13.20;10.50;;;20.80;99.90;;;;;;5034588;28;20439;-77
2022/08/20 07:56:05;;;;;;;9.63;7.90;;;20.80;99.90;;;;;;5035799;28;20420;-75
2022/08/20 07:58:34;;;;;;;14.17;9.07;;;20.80;99.90;;;;;;5034452;28;20441;-76
2022/08/20 08:01:03;;;;;;;10.47;7.37;;;20.80;99.90;;;;;;5036092;28;20549;-76
2022/08/20 08:03:32;;;;;;;12.60;7.77;;;20.80;99.90;;;;;;5035553;28;20439;-76
2022/08/20 08:06:19;;;;;;;13.60;7.60;;;20.80;99.90;;;;;;5035547;28;20556;-77
2022/08/20 08:09:02;;;;;;;13.23;7.53;;;20.70;99.90;;;;;;5034542;28;20855;-75
2022/08/20 08:11:32;;;;;;;10.73;6.40;;;20.70;99.90;;;;;;5035815;28;20481;-81
2022/08/20 08:14:03;;;;;;;11.10;6.40;;;20.80;99.90;;;;;;5038582;28;20439;-79
2022/08/20 08:16:31;;;;;;;9.00;5.13;;;20.80;99.90;;;;;;5037283;28;20478;-79
2022/08/20 08:19:00;;;;;;;9.60;5.20;;;20.90;99.90;;;;;;5036464;28;20550;-78
2022/08/20 08:21:30;;;;;;;11.03;5.97;;;20.90;99.90;;;;;;5036231;28;20451;-78
2022/08/20 08:24:01;;;;;;;11.43;5.63;;;21.00;99.90;;;;;;5038062;28;20522;-79
2022/08/20 08:26:29;;;;;;;10.37;5.50;;;21.10;99.90;;;;;;5036647;28;20511;-78
2022/08/20 08:28:58;;;;;;;14.73;4.80;;;21.20;99.90;;;;;;5039528;28;20435;-79
2022/08/20 08:31:26;;;;;;;12.23;5.13;;;21.30;99.90;;;;;;5036279;28;20451;-80
2022/08/20 08:33:54;;;;;;;10.43;4.93;;;21.50;99.90;;;;;;5036141;28;20447;-79
2022/08/20 08:36:25;;;;;;;7.67;4.37;;;21.60;99.90;;;;;;5036722;28;20992;-78
2022/08/20 08:38:54;;;;;;;9.50;4.80;;;21.70;99.90;;;;;;5036479;28;20443;-77
2022/08/20 08:41:28;;;;;;;6.93;4.20;;;21.80;99.90;;;;;;5035262;28;20534;-78
2022/08/20 08:44:03;;;;;;;6.87;4.00;;;22.00;99.90;;;;;;5037560;28;20423;-79
2022/08/20 08:46:35;;;;;;;9.20;3.70;;;22.10;99.90;;;;;;5035907;28;20478;-79
2022/08/20 08:49:04;;;;;;;8.80;4.30;;;22.20;99.90;;;;;;5037652;28;20443;-77
2022/08/20 08:51:37;;;;;;;6.17;3.80;;;22.30;99.90;;;;;;5035599;28;21043;-78
2022/08/20 08:54:07;;;;;;;7.00;3.73;;;22.40;99.90;;;;;;5035708;28;20447;-79
2022/08/20 08:56:36;;;;;;;6.60;4.03;;;22.60;99.90;;;;;;5034807;28;20464;-79
2022/08/20 08:59:07;;;;;;;9.33;3.70;;;22.70;99.90;;;;;;5036762;28;20492;-79
2022/08/20 09:01:42;;;;;;;7.10;3.70;;;22.80;99.90;;;;;;5038724;28;20419;-80
2022/08/20 09:04:30;;;;;;;5.80;4.00;;;22.70;99.90;;;;;;5037430;28;20475;-80
2022/08/20 09:07:01;;;;;;;8.90;3.50;;;22.80;99.90;;;;;;5037543;28;20522;-79
2022/08/20 09:09:34;;;;;;;5.77;3.40;;;22.90;99.90;;;;;;5038934;28;20430;-78
2022/08/20 09:12:07;;;;;;;6.30;3.60;;;23.00;99.90;;;;;;5037154;28;20418;-78
2022/08/20 09:14:36;;;;;;;7.17;3.90;;;23.00;99.90;;;;;;5036732;28;20459;-79
2022/08/20 09:17:05;;;;;;;6.83;3.70;;;23.00;99.90;;;;;;5038160;28;20509;-80
2022/08/20 09:19:33;;;;;;;6.17;3.43;;;22.90;99.90;;;;;;5039024;28;20921;-79
2022/08/20 09:22:07;;;;;;;7.97;3.23;;;23.00;99.90;;;;;;5036870;28;20471;-80
2022/08/20 09:24:35;;;;;;;7.53;3.80;;;22.90;99.90;;;;;;5037356;28;20461;-80
2022/08/20 09:27:06;;;;;;;7.70;2.67;;;22.90;99.90;;;;;;5036293;28;20498;-78
2022/08/20 09:29:34;;;;;;;7.43;3.50;;;22.90;99.90;;;;;;5035571;28;20999;-78
2022/08/20 09:32:07;;;;;;;11.83;3.67;;;22.90;99.90;;;;;;5036694;28;20529;-80
2022/08/20 09:34:37;;;;;;;5.73;2.30;;;22.90;99.90;;;;;;5035316;28;20522;-79
2022/08/20 09:37:06;;;;;;;5.30;2.80;;;22.90;99.90;;;;;;5035278;28;20549;-80
2022/08/20 09:39:34;;;;;;;7.07;2.80;;;22.90;99.90;;;;;;5036174;28;20804;-79
2022/08/20 09:42:11;;;;;;;5.40;2.40;;;22.90;99.90;;;;;;5036385;28;20450;-78
2022/08/20 09:44:40;;;;;;;4.73;2.10;;;23.00;99.90;;;;;;5035653;28;20434;-80
2022/08/20 09:47:09;;;;;;;4.43;2.43;;;23.10;99.90;;;;;;5037087;28;20478;-79
2022/08/20 09:49:37;;;;;;;5.87;2.37;;;23.20;99.90;;;;;;5035823;28;20449;-78
2022/08/20 09:52:08;;;;;;;10.80;2.70;;;23.30;99.90;;;;;;5036908;28;20442;-79
2022/08/20 09:54:37;;;;;;;6.00;2.20;;;23.30;99.90;;;;;;5035697;28;20522;-79
2022/08/20 09:57:13;;;;;;;6.20;3.33;;;23.30;99.90;;;;;;5036150;28;20486;-78
2022/08/20 09:59:41;;;;;;;11.00;2.53;;;23.40;99.90;;;;;;5035932;28;20439;-78
2022/08/20 10:02:09;;;;;;;5.13;2.80;;;23.40;99.90;;;;;;5035279;28;20538;-80
2022/08/20 10:04:37;;;;;;;6.60;2.47;;;23.40;99.90;;;;;;5037972;28;20537;-79
2022/08/20 10:07:08;;;;;;;8.67;2.43;;;23.40;99.90;;;;;;5042420;28;20566;-79
2022/08/20 10:09:38;;;;;;;4.23;2.17;;;23.40;99.90;;;;;;5040860;28;20436;-80
2022/08/20 10:12:07;;;;;;;3.20;2.30;;;23.40;99.90;;;;;;5042562;28;20909;-80
2022/08/20 10:14:37;;;;;;;3.93;2.50;;;23.50;99.90;;;;;;5041732;28;20472;-80
2022/08/20 10:17:05;;;;;;;5.23;2.70;;;23.50;99.90;;;;;;5038883;28;21087;-79
2022/08/20 10:19:33;;;;;;;6.57;3.03;;;23.60;99.90;;;;;;5041300;28;20458;-80
2022/08/20 10:22:01;;;;;;;7.10;2.60;;;23.70;99.90;;;;;;5039914;28;20484;-79
2022/08/20 10:24:30;;;;;;;5.93;2.27;;;23.80;99.90;;;;;;5039651;28;20929;-79
2022/08/20 10:27:00;;;;;;;3.67;2.20;;;23.90;99.90;;;;;;5040615;28;20489;-79
2022/08/20 10:29:29;;;;;;;6.57;2.40;;;24.00;99.90;;;;;;5039071;28;20482;-80
2022/08/20 10:32:10;;;;;;;4.30;2.20;;;24.00;99.90;;;;;;5039315;28;20906;-80
2022/08/20 10:34:39;;;;;;;4.47;2.17;;;24.00;99.40;;;;;;5039385;28;21006;-79
2022/08/20 10:37:08;;;;;;;5.80;2.20;;;24.00;99.20;;;;;;5039034;28;20470;-81
2022/08/20 10:39:36;;;;;;;5.70;2.27;;;24.00;98.70;;;;;;5041671;28;20453;-80
2022/08/20 10:42:04;;;;;;;8.10;2.27;;;24.10;98.80;;;;;;5040441;28;20454;-80
2022/08/20 10:44:32;;;;;;;5.97;2.63;;;24.10;98.70;;;;;;5041871;28;20438;-80
2022/08/20 10:47:18;;;;;;;6.60;2.57;;;24.20;98.50;;;;;;5041863;28;20532;-80
2022/08/20 10:49:47;;;;;;;7.20;2.60;;;24.20;98.40;;;;;;5039001;28;20537;-80
2022/08/20 10:52:16;;;;;;;4.60;2.17;;;24.20;98.40;;;;;;5041060;28;20443;-78
2022/08/20 10:54:44;;;;;;;6.53;2.13;;;24.20;98.40;;;;;;5040400;28;20485;-79
2022/08/20 10:57:16;;;;;;;4.73;2.50;;;24.30;98.30;;;;;;5040077;28;20498;-80
2022/08/20 10:59:46;;;;;;;5.23;2.20;;;24.30;98.10;;;;;;5040937;28;20825;-78
2022/08/20 11:02:16;;;;;;;8.90;3.27;;;24.30;98.10;;;;;;5039953;28;20438;-79
2022/08/20 11:04:44;;;;;;;5.10;2.70;;;24.20;98.10;;;;;;5037217;28;20845;-78
2022/08/20 11:07:15;;;;;;;6.83;2.53;;;24.30;98.10;;;;;;5038122;28;20509;-79
2022/08/20 11:09:44;;;;;;;6.30;2.40;;;24.30;98.20;;;;;;5037567;28;20478;-79
2022/08/20 11:12:12;;;;;;;7.83;2.37;;;24.30;98.20;;;;;;5038255;28;20458;-79
2022/08/20 11:14:41;;;;;;;6.30;2.50;;;24.40;98.20;;;;;;5038699;28;20434;-78
2022/08/20 11:17:09;;;;;;;5.30;2.20;;;24.40;98.10;;;;;;5038105;28;20451;-77
2022/08/20 11:19:44;;;;;;;5.00;2.47;;;24.40;98.10;;;;;;5054078;28;20446;-79
2022/08/20 11:22:12;;;;;;;5.70;2.17;;;24.50;98.10;;;;;;5043659;28;20530;-78
2022/08/20 11:24:40;;;;;;;5.00;1.93;;;24.50;98.00;;;;;;5037488;28;20948;-77
2022/08/20 11:27:24;;;;;;;4.67;2.27;;;24.50;97.70;;;;;;5037374;28;20467;-78
2022/08/20 11:29:53;;;;;;;4.60;2.20;;;24.60;97.50;;;;;;5036770;28;20538;-78
2022/08/20 11:32:22;;;;;;;3.50;1.70;;;24.50;97.70;;;;;;5037517;28;20530;-77
2022/08/20 11:34:52;;;;;;;4.37;1.90;;;24.60;97.40;;;;;;5038485;28;20541;-81
2022/08/20 11:37:23;;;;;;;6.53;1.90;;;24.60;97.20;;;;;;5055832;28;20536;-78
2022/08/20 11:39:52;;;;;;;4.63;2.03;;;24.70;97.20;;;;;;5040486;28;20423;-79
2022/08/20 11:42:20;;;;;;;4.70;1.87;;;24.70;97.00;;;;;;5054423;28;20450;-78
2022/08/20 11:44:48;;;;;;;7.07;2.23;;;24.80;96.90;;;;;;5054053;28;20453;-79
2022/08/20 11:47:24;;;;;;;4.83;2.00;;;24.80;96.80;;;;;;5039298;28;20517;-80
2022/08/20 11:50:00;;;;;;;5.30;2.37;;;24.80;96.70;;;;;;5040311;28;20411;-80
2022/08/20 11:52:29;;;;;;;4.10;1.90;;;24.70;96.60;;;;;;5038640;28;20431;-78
2022/08/20 11:54:58;;;;;;;4.00;2.13;;;24.70;96.50;;;;;;5052990;28;20542;-79
2022/08/20 11:57:28;;;;;;;5.37;2.30;;;24.60;96.10;;;;;;5037355;28;20814;-79
2022/08/20 11:59:58;;;;;;;4.80;2.03;;;24.60;96.00;;;;;;5036675;28;20434;-78
2022/08/20 12:02:27;;;;;;;5.80;2.47;;;24.60;96.00;;;;;;5053439;28;20457;-79
2022/08/20 12:04:58;;;;;;;4.00;1.90;;;24.70;96.10;;;;;;5039633;28;20474;-79
2022/08/20 12:07:26;;;;;;;4.07;1.83;;;24.70;96.00;;;;;;5038630;28;20550;-80
2022/08/20 12:09:54;;;;;;;7.80;1.80;;;24.80;96.00;;;;;;5040282;28;20873;-79
2022/08/20 12:12:23;;;;;;;6.20;2.23;;;24.90;96.00;;;;;;5038733;28;20489;-79
2022/08/20 12:14:52;;;;;;;5.40;1.80;;;24.90;95.90;;;;;;5039624;28;20485;-79
2022/08/20 12:17:25;;;;;;;6.97;1.70;;;25.00;95.70;;;;;;5036445;28;20470;-78
2022/08/20 12:19:59;;;;;;;6.40;2.20;;;25.00;95.20;;;;;;5038530;28;20425;-80
2022/08/20 12:22:28;;;;;;;5.33;2.00;;;24.90;95.00;;;;;;5053265;28;20537;-78
2022/08/20 12:24:56;;;;;;;4.10;1.63;;;24.90;94.80;;;;;;5036662;28;20454;-78
2022/08/20 12:27:26;;;;;;;4.30;1.80;;;24.90;94.60;;;;;;5037162;28;20471;-78
2022/08/20 12:29:56;;;;;;;4.03;1.80;;;24.80;94.80;;;;;;5038652;28;20431;-79
2022/08/20 12:32:27;;;;;;;4.60;1.90;;;24.90;94.50;;;;;;5037681;28;20929;-79
2022/08/20 12:34:58;;;;;;;4.63;2.10;;;24.90;94.20;;;;;;5038531;28;20912;-81
2022/08/20 12:37:28;;;;;;;3.97;2.00;;;25.00;94.20;;;;;;5053315;28;20467;-79
2022/08/20 12:39:58;;;;;;;4.33;1.70;;;25.00;94.00;;;;;;5038726;28;20484;-80
2022/08/20 12:42:29;;;;;;;3.60;1.53;;;25.00;94.00;;;;;;5054055;28;20458;-80
2022/08/20 12:44:58;;;;;;;3.10;1.50;;;25.00;94.40;;;;;;5037272;28;20443;-79
2022/08/20 12:47:29;;;;;;;4.50;1.80;;;25.00;94.20;;;;;;5054321;28;20487;-79
2022/08/20 12:50:00;;;;;;;5.90;2.20;;;25.00;94.30;;;;;;5037971;28;20477;-79
2022/08/20 12:52:30;;;;;;;4.23;2.10;;;25.00;94.30;;;;;;5052615;28;20453;-79
2022/08/20 12:54:59;;;;;;;5.47;2.30;;;25.00;94.30;;;;;;5035851;28;20570;-79
2022/08/20 12:57:29;;;;;;;7.30;2.00;;;24.90;94.30;;;;;;5036467;28;20466;-78
2022/08/20 12:59:59;;;;;;;3.10;1.60;;;24.90;94.40;;;;;;5036552;28;20451;-78
2022/08/20 13:02:30;;;;;;;6.10;1.93;;;25.00;94.40;;;;;;5036641;28;20855;-78